Airfield :
LOGIN :

Register | Disclaimer

   EN    FR    IT 

 










Legend :    VFR   Marginal VFR   IFR   Intensive IFR   Very Intensive IFR
Visi :
Ceiling :
>= 8 km
>= 3000ft
5 to 8 km
1000 to 3000 ft
1500m to 5 km
500 to 1000 ft
800 to 1500m
200 to 500 ft
< 800m
< 200 ft
Symbols :   Thunderstorms  Fog  Heavy snow  Heavy precipitations  Wind > 20 kt
SIGMETs :     Misc.  Thunderstorms  Icing  Turbulence  Mountain Waves  Volcanic Ashes







- Airport Elevation : 93 ft
- IATA code : HDF


EDAH - Heringsdorf

CURRENT METAR :
  • 240920Z 28009KT 240V340 9999 BKN019 13/09 Q1016

EXPIRED METARs :
  • 240850Z 29007KT 240V360 9999 BKN024 13/09 Q1016
  • 240820Z 29006KT 250V330 9999 BKN018 12/09 Q1015
  • 240750Z 28007KT 260V330 9999 BKN033 12/09 Q1015
  • 240720Z 29007KT 250V350 9999 BKN024 12/09 Q1015
  • 240650Z 28007KT 250V320 9999 BKN028 11/09 Q1015

TAF TAF EDAH
Valid from the 24 at 09:00 until the 24 at 18:00 UTC


240800Z 2409/2418 28008KT 9999 BKN030
BECMG 2409/2411 28013KT
TEMPO 2409/2415 28015G25KT
BECMG 2416/2418 28007KT
No reported NOTAMs for that airfield.



MET'MAP, your aeronautical weather chart ! - Copyright ORBIFLY December 2007 - Disclaimer

ORBIFLY MET'MAP TEAM :

Programming & Development : Alexandra Zaïnal
Concept & Development : Baudouin d'Aumeries
Co-Development & Prog : Marc-Olivier Méhu
Technical & hardware support : Manuel Goepfert

Contact : metmap@orbifly.com




SOURCES & CREDITS :

   NOAA